Falmouth, Pennsylvania
Current Conditions -  °F | °C
As of 10:56 AM on Friday 24 Oct 2014 (Local Time) from KMDT Reporting Station
Clear Clear  
Wind Chill: 61°   Ceiling: Unl
Heat Index: 61°   Visibility: 10mi
Dew Point: 40°   Wind: 14mph
Humidity: 46%   Direction: 330°NNW
Pressure: 29.94"   Gusts: NA
Location:  40.1066°N, 76.6626°W
Report Text: KMDT 241456Z 33012KT 10SM CLR 16/04 A2994 RMK AO2 SLP138 T01610044 50007
Loading
Personal Weather Stations






























Interactive Weather Map
Tropical Storm Tracking
New forecast layout! Learn more

10-Day Weather Forecast

Advertisements
Track Severe Weather on mobile